Time;durP1;ratioP1;P1;durP2;ratioP2;P2;SDS_P1;SDS_P2;PMS_P1;PMS_P2;Temp;Humidity;BMP_temperature;BMP_pressure;BME280_temperature;BME280_humidity;BME280_pressure;Samples;Min_cycle;Max_cycle;Signal;HPM_P1;HPM_P2
2024/04/15 00:02:00;;;;;;;;;;;25.60;41.10;;;;;;5453896;26;20289;-60
2024/04/15 00:04:27;;;;;;;;;;;25.50;41.00;;;;;;5453719;26;19997;-60
2024/04/15 00:06:54;;;;;;;;;;;25.60;41.10;;;;;;5453468;26;19935;-60
2024/04/15 00:09:21;;;;;;;;;;;25.50;41.00;;;;;;5453479;26;20251;-60
2024/04/15 00:11:48;;;;;;;;;;;25.50;41.00;;;;;;5453743;26;19935;-60
2024/04/15 00:14:15;;;;;;;;;;;25.50;41.00;;;;;;5453492;26;19928;-60
2024/04/15 00:16:43;;;;;;;;;;;25.50;41.00;;;;;;5453534;26;19935;-60
2024/04/15 00:19:10;;;;;;;;;;;25.50;41.10;;;;;;5453381;26;19935;-60
2024/04/15 00:21:37;;;;;;;;;;;25.50;41.10;;;;;;5453392;26;19928;-60
2024/04/15 00:24:04;;;;;;;;;;;25.50;41.10;;;;;;5453181;26;20306;-60
2024/04/15 00:26:31;;;;;;;;;;;25.50;41.10;;;;;;5453401;26;20366;-61
2024/04/15 00:28:58;;;;;;;;;;;25.50;41.10;;;;;;5453063;26;20272;-60
2024/04/15 00:31:25;;;;;;;;;;;25.50;41.20;;;;;;5451533;26;19928;-60
2024/04/15 00:33:53;;;;;;;;;;;25.50;41.20;;;;;;5453303;26;19929;-60
2024/04/15 00:36:20;;;;;;;;;;;25.50;41.20;;;;;;5453088;26;19935;-60
2024/04/15 00:38:47;;;;;;;;;;;25.50;41.30;;;;;;5452999;26;19997;-60
2024/04/15 00:41:14;;;;;;;;;;;25.50;41.20;;;;;;5453034;26;19929;-61
2024/04/15 00:43:41;;;;;;;;;;;25.50;41.20;;;;;;5453189;26;19929;-60
2024/04/15 00:46:08;;;;;;;;;;;25.40;41.20;;;;;;5452982;26;20270;-60
2024/04/15 00:48:36;;;;;;;;;;;25.40;41.20;;;;;;5452749;26;19929;-60
2024/04/15 00:51:03;;;;;;;;;;;25.40;41.20;;;;;;5452917;26;19929;-60
2024/04/15 00:53:30;;;;;;;;;;;25.40;41.20;;;;;;5452796;26;19928;-60
2024/04/15 00:55:58;;;;;;;;;;;25.40;41.20;;;;;;5454341;26;19929;-60
2024/04/15 00:58:26;;;;;;;;;;;25.40;41.20;;;;;;5454910;26;19936;-60
2024/04/15 01:00:54;;;;;;;;;;;25.40;41.20;;;;;;5456124;26;20382;-60
2024/04/15 01:03:22;;;;;;;;;;;25.40;41.20;;;;;;5456390;26;19957;-60
2024/04/15 01:05:49;;;;;;;;;;;25.40;41.20;;;;;;5454688;26;19996;-60
2024/04/15 01:08:17;;;;;;;;;;;25.40;41.20;;;;;;5456357;26;19940;-61
2024/04/15 01:10:44;;;;;;;;;;;25.40;41.20;;;;;;5456088;26;19929;-60
2024/04/15 01:13:26;;;;;;;;;;;25.40;41.30;;;;;;5456469;26;20258;-60
2024/04/15 01:15:56;;;;;;;;;;;25.40;41.20;;;;;;5456219;26;20370;-60
2024/04/15 01:18:23;;;;;;;;;;;25.40;41.30;;;;;;5456142;26;19932;-60
2024/04/15 01:20:51;;;;;;;;;;;25.40;41.30;;;;;;5455911;26;20381;-60
2024/04/15 01:23:20;;;;;;;;;;;25.40;41.30;;;;;;5456205;26;19928;-63
2024/04/15 01:25:48;;;;;;;;;;;25.40;41.30;;;;;;5454213;26;19928;-60
2024/04/15 01:28:19;;;;;;;;;;;25.40;41.30;;;;;;5456059;26;20374;-60
2024/04/15 01:30:46;;;;;;;;;;;25.40;41.30;;;;;;5455805;26;19935;-60
2024/04/15 01:33:13;;;;;;;;;;;25.40;41.30;;;;;;5456043;26;19940;-60
2024/04/15 01:35:40;;;;;;;;;;;25.40;41.30;;;;;;5454111;26;20286;-60
2024/04/15 01:38:07;;;;;;;;;;;25.40;41.40;;;;;;5455927;26;20384;-60
2024/04/15 01:40:34;;;;;;;;;;;25.40;41.40;;;;;;5455747;26;20296;-60
2024/04/15 01:43:01;;;;;;;;;;;25.30;41.40;;;;;;5455821;26;19944;-60
2024/04/15 01:45:29;;;;;;;;;;;25.30;41.40;;;;;;5455753;26;19936;-60
2024/04/15 01:47:56;;;;;;;;;;;25.40;41.50;;;;;;5455661;26;20380;-60
2024/04/15 01:50:23;;;;;;;;;;;25.30;41.40;;;;;;5455744;26;19997;-60
2024/04/15 01:52:50;;;;;;;;;;;25.30;41.40;;;;;;5455314;26;19936;-60
2024/04/15 01:55:17;;;;;;;;;;;25.30;41.40;;;;;;5455691;26;19936;-60
2024/04/15 01:57:44;;;;;;;;;;;25.30;41.50;;;;;;5455743;26;19936;-60
2024/04/15 02:00:11;;;;;;;;;;;25.30;41.40;;;;;;5455345;26;19936;-60
2024/04/15 02:02:38;;;;;;;;;;;25.30;41.50;;;;;;5455582;26;19929;-60
2024/04/15 02:05:07;;;;;;;;;;;25.30;41.40;;;;;;5455408;26;19998;-60
2024/04/15 02:07:36;;;;;;;;;;;25.30;41.40;;;;;;5455304;26;19940;-60
2024/04/15 02:10:03;;;;;;;;;;;25.30;41.40;;;;;;5455460;26;19928;-60
2024/04/15 02:12:31;;;;;;;;;;;25.30;41.40;;;;;;5455457;26;19936;-61
2024/04/15 02:14:58;;;;;;;;;;;25.30;41.40;;;;;;5455330;26;19932;-60
2024/04/15 02:17:26;;;;;;;;;;;25.30;41.60;;;;;;5455469;26;20451;-60
2024/04/15 02:19:53;;;;;;;;;;;25.30;41.40;;;;;;5455216;26;19928;-60
2024/04/15 02:22:20;;;;;;;;;;;25.30;41.40;;;;;;5455392;26;20274;-60
2024/04/15 02:24:47;;;;;;;;;;;25.30;41.40;;;;;;5455143;26;19932;-60
2024/04/15 02:27:14;;;;;;;;;;;25.30;41.40;;;;;;5455229;26;20270;-60
2024/04/15 02:29:41;;;;;;;;;;;25.30;41.40;;;;;;5455047;26;19978;-60
2024/04/15 02:32:08;;;;;;;;;;;25.30;41.40;;;;;;5455273;26;19935;-60
2024/04/15 02:34:35;;;;;;;;;;;25.30;41.40;;;;;;5453198;26;19936;-61
2024/04/15 02:37:02;;;;;;;;;;;25.30;41.50;;;;;;5454950;26;19929;-60
2024/04/15 02:39:29;;;;;;;;;;;25.30;41.50;;;;;;5455041;26;19936;-60
2024/04/15 02:41:56;;;;;;;;;;;25.30;41.50;;;;;;5455029;26;19939;-60
2024/04/15 02:44:23;;;;;;;;;;;25.30;41.50;;;;;;5454951;26;19929;-60
2024/04/15 02:46:50;;;;;;;;;;;25.30;41.50;;;;;;5454854;26;19936;-60
2024/04/15 02:49:17;;;;;;;;;;;25.30;41.60;;;;;;5454896;26;19928;-60
2024/04/15 02:51:44;;;;;;;;;;;25.20;42.00;;;;;;5454760;26;19933;-60
2024/04/15 02:54:11;;;;;;;;;;;25.20;41.50;;;;;;5454845;26;19941;-60
2024/04/15 02:56:41;;;;;;;;;;;25.20;41.50;;;;;;5454678;26;19929;-61
2024/04/15 02:59:08;;;;;;;;;;;25.20;41.60;;;;;;5454584;26;19929;-60
2024/04/15 03:01:35;;;;;;;;;;;25.20;41.60;;;;;;5454805;26;19997;-60
2024/04/15 03:04:02;;;;;;;;;;;25.20;41.60;;;;;;5454595;26;19928;-60
2024/04/15 03:06:29;;;;;;;;;;;25.20;41.60;;;;;;5454700;26;20266;-60
2024/04/15 03:08:56;;;;;;;;;;;25.20;41.60;;;;;;5454533;26;20373;-60
2024/04/15 03:11:23;;;;;;;;;;;25.20;41.60;;;;;;5452834;26;19932;-60
2024/04/15 03:13:52;;;;;;;;;;;25.20;41.60;;;;;;5454594;26;19943;-60
2024/04/15 03:16:19;;;;;;;;;;;25.20;41.60;;;;;;5452872;26;20296;-60
2024/04/15 03:18:53;;;;;;;;;;;25.20;41.50;;;;;;5445917;26;19936;-60
2024/04/15 03:21:20;;;;;;;;;;;25.20;41.50;;;;;;5418414;26;19935;-60
2024/04/15 03:23:47;;;;;;;;;;;25.20;41.50;;;;;;5418458;26;19929;-60
2024/04/15 03:26:14;;;;;;;;;;;25.20;41.50;;;;;;5450805;26;19928;-60
2024/04/15 03:28:42;;;;;;;;;;;25.20;41.50;;;;;;5454196;26;19928;-61
2024/04/15 03:31:09;;;;;;;;;;;25.20;41.50;;;;;;5452160;26;19936;-60
2024/04/15 03:33:38;;;;;;;;;;;25.20;41.50;;;;;;5453487;26;20309;-60
2024/04/15 03:36:06;;;;;;;;;;;25.20;41.50;;;;;;5453989;26;19929;-60
2024/04/15 03:38:33;;;;;;;;;;;25.20;41.50;;;;;;5454030;26;19928;-60
2024/04/15 03:41:00;;;;;;;;;;;25.20;41.50;;;;;;5453794;26;19928;-60
2024/04/15 03:43:27;;;;;;;;;;;25.20;41.60;;;;;;5454447;26;19936;-60
2024/04/15 03:45:54;;;;;;;;;;;25.20;41.50;;;;;;5454067;26;19928;-60
2024/04/15 03:48:21;;;;;;;;;;;25.20;41.60;;;;;;5453987;26;19933;-60
2024/04/15 03:50:48;;;;;;;;;;;25.20;41.60;;;;;;5453851;26;19934;-60
2024/04/15 03:53:15;;;;;;;;;;;25.20;41.60;;;;;;5454048;26;20402;-60
2024/04/15 03:55:50;;;;;;;;;;;25.20;41.60;;;;;;5452106;26;19928;-61
2024/04/15 03:58:17;;;;;;;;;;;25.20;41.60;;;;;;5453880;26;19936;-60
2024/04/15 04:00:45;;;;;;;;;;;25.20;41.60;;;;;;5453038;26;19996;-61
2024/04/15 04:03:12;;;;;;;;;;;25.20;41.60;;;;;;5453830;26;19936;-60
2024/04/15 04:05:39;;;;;;;;;;;25.10;41.60;;;;;;5453725;26;19929;-60
2024/04/15 04:08:06;;;;;;;;;;;25.20;41.70;;;;;;5453628;26;19940;-60
2024/04/15 04:10:33;;;;;;;;;;;25.20;41.70;;;;;;5453185;26;19929;-60
2024/04/15 04:13:00;;;;;;;;;;;25.10;41.70;;;;;;5453377;26;20402;-60
2024/04/15 04:15:27;;;;;;;;;;;25.10;41.70;;;;;;5451823;26;19943;-60
2024/04/15 04:17:54;;;;;;;;;;;25.10;41.70;;;;;;5453648;26;19936;-60
2024/04/15 04:20:21;;;;;;;;;;;25.10;41.70;;;;;;5452969;26;19997;-60
2024/04/15 04:22:48;;;;;;;;;;;25.10;41.60;;;;;;5453138;26;20370;-61
2024/04/15 04:25:15;;;;;;;;;;;25.10;41.60;;;;;;5453343;26;19929;-60
2024/04/15 04:27:42;;;;;;;;;;;25.20;41.70;;;;;;5453316;26;20362;-60
2024/04/15 04:30:09;;;;;;;;;;;25.20;41.60;;;;;;5453422;26;20270;-60
2024/04/15 04:32:36;;;;;;;;;;;25.20;41.60;;;;;;5456831;26;19978;-60
2024/04/15 04:35:03;;;;;;;;;;;25.20;41.50;;;;;;5456364;26;20467;-60
2024/04/15 04:37:30;;;;;;;;;;;25.20;41.50;;;;;;5456476;26;20316;-60
2024/04/15 04:39:57;;;;;;;;;;;25.20;41.30;;;;;;5456681;26;19943;-60
2024/04/15 04:42:24;;;;;;;;;;;25.20;41.00;;;;;;5456737;26;19936;-60
2024/04/15 04:44:55;;;;;;;;;;;25.30;40.90;;;;;;5456115;26;20022;-61
2024/04/15 04:47:22;;;;;;;;;;;25.30;40.70;;;;;;5456429;26;20374;-62
2024/04/15 04:49:49;;;;;;;;;;;25.40;40.60;;;;;;5456407;26;19936;-60
2024/04/15 04:52:16;;;;;;;;;;;25.40;40.50;;;;;;5455978;26;19928;-60
2024/04/15 04:54:44;;;;;;;;;;;25.40;40.40;;;;;;5456171;26;19937;-60
2024/04/15 04:57:11;;;;;;;;;;;25.40;40.30;;;;;;5455465;26;19940;-60
2024/04/15 04:59:38;;;;;;;;;;;25.40;40.20;;;;;;5455910;26;19932;-60
2024/04/15 05:02:05;;;;;;;;;;;25.40;40.10;;;;;;5455803;26;19933;-60
2024/04/15 05:04:34;;;;;;;;;;;25.40;40.00;;;;;;5455851;26;19929;-60
2024/04/15 05:07:01;;;;;;;;;;;25.40;39.90;;;;;;5454323;26;19934;-60
2024/04/15 05:09:28;;;;;;;;;;;25.40;39.80;;;;;;5456030;26;20378;-60
2024/04/15 05:11:55;;;;;;;;;;;25.40;39.70;;;;;;5456132;26;19928;-62
2024/04/15 05:14:22;;;;;;;;;;;25.40;39.70;;;;;;5455811;26;19935;-60
2024/04/15 05:16:49;;;;;;;;;;;25.40;39.60;;;;;;5456180;26;19928;-60
2024/04/15 05:19:16;;;;;;;;;;;25.50;39.60;;;;;;5453982;26;19940;-64
2024/04/15 05:21:43;;;;;;;;;;;25.50;39.50;;;;;;5453917;26;19929;-57
2024/04/15 05:24:10;;;;;;;;;;;25.50;39.40;;;;;;5450382;26;19935;-58
2024/04/15 05:26:37;;;;;;;;;;;25.60;39.60;;;;;;5449070;26;19936;-58
2024/04/15 05:29:04;;;;;;;;;;;25.70;39.50;;;;;;5447773;26;19929;-58
2024/04/15 05:31:31;;;;;;;;;;;25.70;39.40;;;;;;5443071;26;19972;-58
2024/04/15 05:33:58;;;;;;;;;;;25.80;39.40;;;;;;5439653;26;20001;-58
2024/04/15 05:36:25;;;;;;;;;;;25.80;39.30;;;;;;5441159;26;19936;-58
2024/04/15 05:38:52;;;;;;;;;;;25.80;39.20;;;;;;5441094;26;19932;-60
2024/04/15 05:41:19;;;;;;;;;;;25.90;39.10;;;;;;5446896;26;19939;-58
2024/04/15 05:43:46;;;;;;;;;;;25.90;38.90;;;;;;5449850;26;19939;-61
2024/04/15 05:46:13;;;;;;;;;;;25.90;38.70;;;;;;5444054;26;19929;-61
2024/04/15 05:48:41;;;;;;;;;;;26.00;38.50;;;;;;5447664;26;20302;-61
2024/04/15 05:51:08;;;;;;;;;;;26.00;38.10;;;;;;5447330;26;19929;-61
2024/04/15 05:53:35;;;;;;;;;;;26.10;37.90;;;;;;5445668;26;20254;-58
2024/04/15 05:56:02;;;;;;;;;;;26.10;37.90;;;;;;5451186;26;19928;-60
2024/04/15 05:58:29;;;;;;;;;;;26.10;37.50;;;;;;5437081;26;19929;-58
2024/04/15 06:00:56;;;;;;;;;;;26.10;37.50;;;;;;5433609;26;19937;-59
2024/04/15 06:03:23;;;;;;;;;;;26.10;37.30;;;;;;5441171;26;19953;-59
2024/04/15 06:05:51;;;;;;;;;;;26.10;37.30;;;;;;5440308;26;19944;-60
2024/04/15 06:08:18;;;;;;;;;;;26.10;37.30;;;;;;5444197;26;20385;-59
2024/04/15 06:10:48;;;;;;;;;;;26.20;37.20;;;;;;5433525;26;20261;-59
2024/04/15 06:13:19;;;;;;;;;;;26.20;37.00;;;;;;5440229;26;19998;-60
2024/04/15 06:15:47;;;;;;;;;;;26.20;36.90;;;;;;5442836;26;20004;-59
2024/04/15 06:18:15;;;;;;;;;;;26.20;37.10;;;;;;5440525;26;19935;-60
2024/04/15 06:20:42;;;;;;;;;;;26.30;37.00;;;;;;5435945;26;19939;-59
2024/04/15 06:23:10;;;;;;;;;;;26.30;37.10;;;;;;5432887;26;19943;-57
2024/04/15 06:25:37;;;;;;;;;;;26.30;37.20;;;;;;5439841;26;19997;-59
2024/04/15 06:28:04;;;;;;;;;;;26.30;37.60;;;;;;5430651;26;19936;-59
2024/04/15 06:30:31;;;;;;;;;;;26.40;37.10;;;;;;5439625;26;19936;-59
2024/04/15 06:32:58;;;;;;;;;;;26.40;37.20;;;;;;5436939;26;19928;-59
2024/04/15 06:35:25;;;;;;;;;;;26.50;36.90;;;;;;5442114;26;20484;-58
2024/04/15 06:37:52;;;;;;;;;;;26.50;36.90;;;;;;5442836;26;19929;-59
2024/04/15 06:40:19;;;;;;;;;;;26.50;36.90;;;;;;5447033;26;19929;-58
2024/04/15 06:42:47;;;;;;;;;;;26.60;36.80;;;;;;5434661;26;19928;-59
2024/04/15 06:45:15;;;;;;;;;;;26.60;36.60;;;;;;5436318;26;19936;-59
2024/04/15 06:47:42;;;;;;;;;;;26.60;36.60;;;;;;5432790;26;19941;-59
2024/04/15 06:50:09;;;;;;;;;;;26.60;36.40;;;;;;5437307;26;19935;-58
2024/04/15 06:52:36;;;;;;;;;;;26.70;36.30;;;;;;5433651;26;19944;-58
2024/04/15 06:55:03;;;;;;;;;;;26.70;36.20;;;;;;5430481;26;20449;-61
2024/04/15 06:57:31;;;;;;;;;;;26.60;36.90;;;;;;5436697;26;20771;-58
2024/04/15 06:59:58;;;;;;;;;;;26.70;36.00;;;;;;5428527;26;19936;-58
2024/04/15 07:02:25;;;;;;;;;;;26.70;36.10;;;;;;5433798;26;19929;-58
2024/04/15 07:04:52;;;;;;;;;;;26.70;35.90;;;;;;5433043;26;19994;-58
2024/04/15 07:07:21;;;;;;;;;;;26.80;35.50;;;;;;5431249;26;20318;-58
2024/04/15 07:09:48;;;;;;;;;;;26.80;35.50;;;;;;5433178;26;19929;-58
2024/04/15 07:12:16;;;;;;;;;;;26.80;36.20;;;;;;5436348;26;19935;-58
2024/04/15 07:14:44;;;;;;;;;;;26.80;35.30;;;;;;5434036;26;19937;-59
2024/04/15 07:17:11;;;;;;;;;;;26.80;35.60;;;;;;5433114;26;19937;-59
2024/04/15 07:19:38;;;;;;;;;;;26.90;35.90;;;;;;5435264;26;20335;-58
2024/04/15 07:22:05;;;;;;;;;;;26.90;36.00;;;;;;5436572;26;19928;-59
2024/04/15 07:24:33;;;;;;;;;;;26.90;35.60;;;;;;5439035;26;19936;-58
2024/04/15 07:27:01;;;;;;;;;;;26.90;35.50;;;;;;5434192;26;19929;-58
2024/04/15 07:29:28;;;;;;;;;;;26.90;35.90;;;;;;5434331;26;19932;-58
2024/04/15 07:31:56;;;;;;;;;;;27.00;35.90;;;;;;5434973;26;19993;-58
2024/04/15 07:34:23;;;;;;;;;;;27.00;35.90;;;;;;5439211;26;19997;-59
2024/04/15 07:36:50;;;;;;;;;;;27.00;36.00;;;;;;5442581;26;19944;-59
2024/04/15 07:39:17;;;;;;;;;;;27.00;36.00;;;;;;5432861;26;19997;-59
2024/04/15 07:41:45;;;;;;;;;;;27.10;35.70;;;;;;5437663;26;20105;-59
2024/04/15 07:44:12;;;;;;;;;;;27.10;35.80;;;;;;5440019;26;20334;-58
2024/04/15 07:46:39;;;;;;;;;;;27.20;35.80;;;;;;5434471;26;19928;-58
2024/04/15 07:49:06;;;;;;;;;;;27.20;35.80;;;;;;5433185;26;20006;-59
2024/04/15 07:51:33;;;;;;;;;;;27.20;35.70;;;;;;5440035;26;20526;-59
2024/04/15 07:54:00;;;;;;;;;;;27.30;35.60;;;;;;5433410;26;19932;-58
2024/04/15 07:56:27;;;;;;;;;;;27.30;35.50;;;;;;5429935;26;19933;-56
2024/04/15 07:58:54;;;;;;;;;;;27.30;35.50;;;;;;5431123;26;19943;-58
2024/04/15 08:01:22;;;;;;;;;;;27.40;35.40;;;;;;5431679;26;20369;-59
2024/04/15 08:03:50;;;;;;;;;;;27.40;35.30;;;;;;5436467;26;20205;-58
2024/04/15 08:06:17;;;;;;;;;;;27.40;35.20;;;;;;5441149;26;19997;-59
2024/04/15 08:08:44;;;;;;;;;;;27.40;35.10;;;;;;5435330;26;19939;-59
2024/04/15 08:11:11;;;;;;;;;;;27.40;35.20;;;;;;5436139;26;19937;-60
2024/04/15 08:13:38;;;;;;;;;;;27.40;35.00;;;;;;5434275;26;19956;-58
2024/04/15 08:16:05;;;;;;;;;;;27.40;35.20;;;;;;5433354;26;19971;-59
2024/04/15 08:18:32;;;;;;;;;;;27.50;35.30;;;;;;5440241;26;19960;-59
2024/04/15 08:20:59;;;;;;;;;;;27.50;35.30;;;;;;5434159;26;19998;-58
2024/04/15 08:23:26;;;;;;;;;;;27.50;35.10;;;;;;5422146;26;19940;-59
2024/04/15 08:25:54;;;;;;;;;;;27.50;34.80;;;;;;5427179;26;19936;-59
2024/04/15 08:28:22;;;;;;;;;;;27.60;35.10;;;;;;5434081;26;19933;-58
2024/04/15 08:30:50;;;;;;;;;;;27.60;34.90;;;;;;5440404;26;20441;-59
2024/04/15 08:33:17;;;;;;;;;;;27.60;34.90;;;;;;5439868;26;19961;-59
2024/04/15 08:35:44;;;;;;;;;;;27.60;34.60;;;;;;5435270;26;19937;-59
2024/04/15 08:38:11;;;;;;;;;;;27.60;34.60;;;;;;5438653;26;19932;-59
2024/04/15 08:40:41;;;;;;;;;;;27.70;34.60;;;;;;5433836;26;20002;-58
2024/04/15 08:43:09;;;;;;;;;;;27.70;34.50;;;;;;5432109;26;19929;-59
2024/04/15 08:45:36;;;;;;;;;;;27.70;34.50;;;;;;5442407;26;19929;-58
2024/04/15 08:48:04;;;;;;;;;;;27.70;34.50;;;;;;5439195;26;19928;-59
2024/04/15 08:50:31;;;;;;;;;;;27.70;34.50;;;;;;5430525;26;19936;-61
2024/04/15 08:52:58;;;;;;;;;;;27.70;34.50;;;;;;5439202;26;19940;-59
2024/04/15 08:55:25;;;;;;;;;;;27.70;34.30;;;;;;5441131;26;19928;-59
2024/04/15 08:57:53;;;;;;;;;;;27.70;34.00;;;;;;5433958;26;19986;-59
2024/04/15 09:00:21;;;;;;;;;;;27.70;33.80;;;;;;5433613;26;19936;-58
2024/04/15 09:02:52;;;;;;;;;;;27.80;33.60;;;;;;5434201;26;19934;-59
2024/04/15 09:05:19;;;;;;;;;;;27.80;33.40;;;;;;5437538;26;20034;-58
2024/04/15 09:07:48;;;;;;;;;;;27.80;33.40;;;;;;5430744;26;20331;-58
2024/04/15 09:10:15;;;;;;;;;;;27.70;33.60;;;;;;5439555;26;19936;-59
2024/04/15 09:12:43;;;;;;;;;;;27.80;33.70;;;;;;5434310;26;19940;-59
2024/04/15 09:15:10;;;;;;;;;;;27.80;33.60;;;;;;5430718;26;22158;-58
2024/04/15 09:17:37;;;;;;;;;;;27.80;33.70;;;;;;5429095;26;19979;-58
2024/04/15 09:20:05;;;;;;;;;;;27.80;34.30;;;;;;5436446;26;20270;-57
2024/04/15 09:22:33;;;;;;;;;;;27.90;33.80;;;;;;5434173;26;20549;-58
2024/04/15 09:25:01;;;;;;;;;;;27.80;33.60;;;;;;5431939;26;20350;-58
2024/04/15 09:27:28;;;;;;;;;;;27.90;33.60;;;;;;5444311;26;19997;-58
2024/04/15 09:29:59;;;;;;;;;;;27.90;33.50;;;;;;5440423;26;19936;-59
2024/04/15 09:32:27;;;;;;;;;;;27.90;33.40;;;;;;5441547;26;19945;-58
2024/04/15 09:34:58;;;;;;;;;;;27.90;33.40;;;;;;5440253;26;19997;-59
2024/04/15 09:37:26;;;;;;;;;;;27.90;33.50;;;;;;5438295;26;20044;-58
2024/04/15 09:39:53;;;;;;;;;;;27.90;33.60;;;;;;5438782;26;20271;-59
2024/04/15 09:42:20;;;;;;;;;;;28.00;33.80;;;;;;5449076;26;19929;-59
2024/04/15 09:44:49;;;;;;;;;;;27.90;33.80;;;;;;5442323;26;19940;-58
2024/04/15 09:47:17;;;;;;;;;;;28.00;33.90;;;;;;5444352;26;19929;-59
2024/04/15 09:49:47;;;;;;;;;;;28.00;33.90;;;;;;5436055;26;19965;-58
2024/04/15 09:52:19;;;;;;;;;;;28.00;33.80;;;;;;5440735;26;19935;-58
2024/04/15 09:54:50;;;;;;;;;;;28.00;33.80;;;;;;5439309;26;20638;-59
2024/04/15 09:57:21;;;;;;;;;;;28.00;33.90;;;;;;5435041;26;19943;-61
2024/04/15 10:00:01;;;;;;;;;;;28.00;34.00;;;;;;5433160;26;20234;-60
2024/04/15 10:02:43;;;;;;;;;;;28.00;34.00;;;;;;5437538;26;19937;-61
2024/04/15 10:05:17;;;;;;;;;;;28.10;34.10;;;;;;5409383;26;19973;-59
2024/04/15 10:07:45;;;;;;;;;;;28.10;34.10;;;;;;5447465;26;19935;-59
2024/04/15 10:10:12;;;;;;;;;;;28.10;34.20;;;;;;5434477;26;19996;-59
2024/04/15 10:12:39;;;;;;;;;;;28.10;34.20;;;;;;5440266;26;19932;-57
2024/04/15 10:15:07;;;;;;;;;;;28.10;34.20;;;;;;5442882;26;19943;-58
2024/04/15 10:17:34;;;;;;;;;;;28.10;34.30;;;;;;5437623;26;19948;-58
2024/04/15 10:20:11;;;;;;;;;;;28.10;34.40;;;;;;5447288;26;20319;-58
2024/04/15 10:22:39;;;;;;;;;;;28.10;34.50;;;;;;5449150;26;19928;-58
2024/04/15 10:25:09;;;;;;;;;;;28.10;34.60;;;;;;5443246;26;19936;-58
2024/04/15 10:27:37;;;;;;;;;;;28.10;34.60;;;;;;5439716;26;19941;-58
2024/04/15 10:30:14;;;;;;;;;;;28.10;34.60;;;;;;5444352;26;19941;-58
2024/04/15 10:32:42;;;;;;;;;;;28.10;34.60;;;;;;5431784;26;19940;-57
2024/04/15 10:35:25;;;;;;;;;;;28.10;34.60;;;;;;5446432;26;20386;-55
2024/04/15 10:37:59;;;;;;;;;;;28.10;34.60;;;;;;5436131;26;19939;-57
2024/04/15 10:40:37;;;;;;;;;;;28.20;34.70;;;;;;5450202;26;20265;-59
2024/04/15 10:43:05;;;;;;;;;;;28.20;34.70;;;;;;5441013;26;19952;-58
2024/04/15 10:45:32;;;;;;;;;;;28.20;34.60;;;;;;5440612;26;19935;-57
2024/04/15 10:47:59;;;;;;;;;;;28.20;34.60;;;;;;5441213;26;20413;-59
2024/04/15 10:50:26;;;;;;;;;;;28.20;34.60;;;;;;5440191;26;20365;-58
2024/04/15 10:52:53;;;;;;;;;;;28.20;34.70;;;;;;5436882;26;19940;-60
2024/04/15 10:55:21;;;;;;;;;;;28.20;34.80;;;;;;5431299;26;19934;-60
2024/04/15 10:57:49;;;;;;;;;;;28.30;35.10;;;;;;5434325;26;19933;-59
2024/04/15 11:00:18;;;;;;;;;;;28.30;35.00;;;;;;5434790;26;20040;-59
2024/04/15 11:02:48;;;;;;;;;;;28.30;35.00;;;;;;5441630;26;19936;-58
2024/04/15 11:05:15;;;;;;;;;;;28.30;35.00;;;;;;5435319;26;19944;-59
2024/04/15 11:07:43;;;;;;;;;;;28.30;35.00;;;;;;5433092;26;19936;-60
2024/04/15 11:10:12;;;;;;;;;;;28.40;34.90;;;;;;5446204;26;19936;-60
2024/04/15 11:12:39;;;;;;;;;;;28.40;34.80;;;;;;5439292;26;19929;-61
2024/04/15 11:15:10;;;;;;;;;;;28.40;34.50;;;;;;5440320;26;20085;-61
2024/04/15 11:17:47;;;;;;;;;;;28.40;34.40;;;;;;5433837;26;19933;-61
2024/04/15 11:20:14;;;;;;;;;;;28.50;34.50;;;;;;5442792;26;19947;-60
2024/04/15 11:22:41;;;;;;;;;;;28.50;34.50;;;;;;5436859;26;20298;-60
2024/04/15 11:25:10;;;;;;;;;;;28.50;34.60;;;;;;5441238;26;19928;-60
2024/04/15 11:27:39;;;;;;;;;;;28.50;34.70;;;;;;5437705;26;19960;-60
2024/04/15 11:30:07;;;;;;;;;;;28.50;34.70;;;;;;5438750;26;19928;-60
2024/04/15 11:32:34;;;;;;;;;;;28.60;34.80;;;;;;5438251;26;19933;-60
2024/04/15 11:35:03;;;;;;;;;;;28.60;34.80;;;;;;5444310;26;20262;-59
2024/04/15 11:37:30;;;;;;;;;;;28.60;34.60;;;;;;5436191;26;19929;-61
2024/04/15 11:39:58;;;;;;;;;;;28.60;34.60;;;;;;5443982;26;19928;-60
2024/04/15 11:42:27;;;;;;;;;;;28.60;34.70;;;;;;5443192;26;19948;-57
2024/04/15 11:44:55;;;;;;;;;;;28.60;34.60;;;;;;5435365;26;19929;-60
2024/04/15 11:47:23;;;;;;;;;;;28.70;34.70;;;;;;5438286;26;20436;-59
2024/04/15 11:49:50;;;;;;;;;;;28.70;34.70;;;;;;5441398;26;19952;-60
2024/04/15 11:52:17;;;;;;;;;;;28.70;34.40;;;;;;5440128;26;20019;-59
2024/04/15 11:54:45;;;;;;;;;;;28.70;34.20;;;;;;5442959;26;19935;-59
2024/04/15 11:57:12;;;;;;;;;;;28.70;34.20;;;;;;5439308;26;19936;-59
2024/04/15 11:59:39;;;;;;;;;;;28.70;34.30;;;;;;5436944;26;19953;-59
2024/04/15 12:02:07;;;;;;;;;;;28.80;34.30;;;;;;5444804;26;19929;-60
2024/04/15 12:04:34;;;;;;;;;;;28.80;34.30;;;;;;5432379;26;19936;-61
2024/04/15 12:07:02;;;;;;;;;;;28.80;34.10;;;;;;5437716;26;19936;-61
2024/04/15 12:09:30;;;;;;;;;;;28.80;33.90;;;;;;5439234;26;19997;-59
2024/04/15 12:11:57;;;;;;;;;;;28.80;34.40;;;;;;5443475;26;19928;-58
2024/04/15 12:14:24;;;;;;;;;;;28.80;33.50;;;;;;5438010;26;19936;-59
2024/04/15 12:16:51;;;;;;;;;;;28.80;33.00;;;;;;5437484;26;19936;-59
2024/04/15 12:19:18;;;;;;;;;;;28.90;32.70;;;;;;5437121;26;19964;-59
2024/04/15 12:21:45;;;;;;;;;;;28.90;32.60;;;;;;5437493;26;20368;-59
2024/04/15 12:24:12;;;;;;;;;;;28.90;32.60;;;;;;5435511;26;20385;-59
2024/04/15 12:26:40;;;;;;;;;;;28.90;32.40;;;;;;5437714;26;19946;-60
2024/04/15 12:29:07;;;;;;;;;;;28.90;32.40;;;;;;5438243;26;19928;-60
2024/04/15 12:31:34;;;;;;;;;;;28.90;32.50;;;;;;5431062;26;20254;-57
2024/04/15 12:34:01;;;;;;;;;;;29.00;32.30;;;;;;5433470;26;19936;-58
2024/04/15 12:36:28;;;;;;;;;;;29.00;31.80;;;;;;5434805;26;19975;-59
2024/04/15 12:38:55;;;;;;;;;;;29.00;32.00;;;;;;5435103;26;19982;-59
2024/04/15 12:41:22;;;;;;;;;;;29.00;32.10;;;;;;5437589;26;19953;-60
2024/04/15 12:43:49;;;;;;;;;;;29.00;32.00;;;;;;5436973;26;19952;-60
2024/04/15 12:46:16;;;;;;;;;;;29.00;32.10;;;;;;5440284;26;20255;-59
2024/04/15 12:48:44;;;;;;;;;;;29.00;32.30;;;;;;5437166;26;19943;-59
2024/04/15 12:51:13;;;;;;;;;;;29.00;32.30;;;;;;5442710;26;19934;-60
2024/04/15 12:53:40;;;;;;;;;;;29.00;32.30;;;;;;5435732;26;19945;-60
2024/04/15 12:56:07;;;;;;;;;;;29.00;31.80;;;;;;5431833;26;19929;-59
2024/04/15 12:58:35;;;;;;;;;;;29.00;31.60;;;;;;5435396;26;20255;-60
2024/04/15 13:01:05;;;;;;;;;;;29.10;31.70;;;;;;5445189;26;20006;-59
2024/04/15 13:03:33;;;;;;;;;;;29.00;31.60;;;;;;5442878;26;19929;-59
2024/04/15 13:06:01;;;;;;;;;;;29.10;31.90;;;;;;5444879;26;19940;-59
2024/04/15 13:08:29;;;;;;;;;;;29.00;31.80;;;;;;5434834;26;20288;-60
2024/04/15 13:10:56;;;;;;;;;;;29.00;31.60;;;;;;5441647;26;19928;-60
2024/04/15 13:13:23;;;;;;;;;;;29.10;30.90;;;;;;5435385;26;19943;-59
2024/04/15 13:15:50;;;;;;;;;;;29.10;30.90;;;;;;5438590;26;19939;-59
2024/04/15 13:18:18;;;;;;;;;;;29.10;31.00;;;;;;5437422;26;20547;-60
2024/04/15 13:20:45;;;;;;;;;;;29.10;30.90;;;;;;5440139;26;19929;-57
2024/04/15 13:23:15;;;;;;;;;;;29.10;30.40;;;;;;5436790;26;19929;-60
2024/04/15 13:25:42;;;;;;;;;;;29.10;30.20;;;;;;5436276;26;19961;-58
2024/04/15 13:28:09;;;;;;;;;;;29.10;30.60;;;;;;5442639;26;20255;-59
2024/04/15 13:30:36;;;;;;;;;;;29.10;30.40;;;;;;5438809;26;19943;-58
2024/04/15 13:33:04;;;;;;;;;;;29.10;30.00;;;;;;5439296;26;19944;-60
2024/04/15 13:35:32;;;;;;;;;;;29.10;29.80;;;;;;5440997;26;19944;-60
2024/04/15 13:38:00;;;;;;;;;;;29.10;29.70;;;;;;5434510;26;19978;-59
2024/04/15 13:40:27;;;;;;;;;;;29.10;29.80;;;;;;5446365;26;20006;-59
2024/04/15 13:42:54;;;;;;;;;;;29.10;29.80;;;;;;5442027;26;19952;-60
2024/04/15 13:45:22;;;;;;;;;;;29.10;29.80;;;;;;5443939;26;19935;-61
2024/04/15 13:47:49;;;;;;;;;;;29.10;29.80;;;;;;5444076;26;19937;-60
2024/04/15 13:50:17;;;;;;;;;;;29.10;29.80;;;;;;5442431;26;19935;-60
2024/04/15 13:52:43;;;;;;;;;;;29.10;29.90;;;;;;5433496;26;19929;-62
2024/04/15 13:55:11;;;;;;;;;;;29.10;29.80;;;;;;5432583;26;19928;-63
2024/04/15 13:57:38;;;;;;;;;;;29.10;29.70;;;;;;5402589;26;19957;-65
2024/04/15 14:00:05;;;;;;;;;;;29.10;29.80;;;;;;5438097;26;20265;-63
2024/04/15 14:02:32;;;;;;;;;;;29.10;30.00;;;;;;5438930;26;19936;-60
2024/04/15 14:04:59;;;;;;;;;;;29.20;30.20;;;;;;5435009;26;20261;-61
2024/04/15 14:07:27;;;;;;;;;;;29.10;30.10;;;;;;5440716;26;19954;-61
2024/04/15 14:09:54;;;;;;;;;;;29.20;30.20;;;;;;5439532;26;19929;-60
2024/04/15 14:12:21;;;;;;;;;;;29.10;30.00;;;;;;5436305;26;19939;-60
2024/04/15 14:14:48;;;;;;;;;;;29.10;30.00;;;;;;5448155;26;19929;-60
2024/04/15 14:17:15;;;;;;;;;;;29.10;29.90;;;;;;5438611;26;19936;-61
2024/04/15 14:19:45;;;;;;;;;;;29.10;29.90;;;;;;5444142;26;20354;-61